createdAt,value
2023-01-26T00:01:51.643Z,0.90
2023-01-26T00:04:21.844Z,1.00
2023-01-26T00:06:52.352Z,1.08
2023-01-26T00:09:22.653Z,1.15
2023-01-26T00:11:52.910Z,0.80
2023-01-26T00:14:23.214Z,1.10
2023-01-26T00:16:55.873Z,0.82
2023-01-26T00:19:26.138Z,1.00
2023-01-26T00:21:56.813Z,1.02
2023-01-26T00:24:27.469Z,0.80
2023-01-26T00:26:57.748Z,1.10
2023-01-26T00:29:28.405Z,1.23
2023-01-26T00:31:58.740Z,1.00
2023-01-26T00:34:29.464Z,1.13
2023-01-26T00:36:59.869Z,0.90
2023-01-26T00:39:30.397Z,0.80
2023-01-26T00:42:11.695Z,1.10
2023-01-26T00:44:43.675Z,1.17
2023-01-26T00:47:16.386Z,0.68
2023-01-26T00:49:47.557Z,1.00
2023-01-26T00:52:18.103Z,1.10
2023-01-26T00:54:48.631Z,1.40
2023-01-26T00:57:19.081Z,1.17
2023-01-26T00:59:49.695Z,1.00
2023-01-26T01:02:20.359Z,1.20
2023-01-26T01:04:51.025Z,1.58
2023-01-26T01:07:21.728Z,1.40
2023-01-26T01:09:51.996Z,1.80
2023-01-26T01:12:22.213Z,2.10
2023-01-26T01:14:52.475Z,1.60
2023-01-26T01:17:22.788Z,1.70
2023-01-26T01:19:53.460Z,1.60
2023-01-26T01:22:25.025Z,1.95
2023-01-26T01:24:57.365Z,2.13
2023-01-26T01:27:28.203Z,1.77
2023-01-26T01:29:58.492Z,1.98
2023-01-26T01:32:28.798Z,1.70
2023-01-26T01:34:59.118Z,1.92
2023-01-26T01:37:32.563Z,2.00
2023-01-26T01:40:03.175Z,1.77
2023-01-26T01:42:35.540Z,1.70
2023-01-26T01:45:31.171Z,1.90
2023-01-26T01:48:06.338Z,2.17
2023-01-26T01:50:42.016Z,2.00
2023-01-26T01:53:18.315Z,1.70
2023-01-26T01:55:49.346Z,1.90
2023-01-26T01:58:20.028Z,2.00
2023-01-26T02:00:50.812Z,2.40
2023-01-26T02:03:23.225Z,1.80
2023-01-26T02:06:11.399Z,1.60
2023-01-26T02:09:08.153Z,1.70
2023-01-26T02:14:14.055Z,1.67
2023-01-26T02:16:44.284Z,1.95
2023-01-26T02:19:27.754Z,1.60
2023-01-26T02:22:02.319Z,1.85
2023-01-26T02:24:40.709Z,1.92
2023-01-26T02:27:11.385Z,2.20
2023-01-26T02:29:42.120Z,1.70
2023-01-26T02:32:12.490Z,1.70
2023-01-26T02:34:42.835Z,1.80
2023-01-26T02:37:17.203Z,1.70
2023-01-26T02:40:01.539Z,2.13
2023-01-26T02:42:40.565Z,1.88
2023-01-26T02:45:13.545Z,1.92
2023-01-26T02:47:43.900Z,2.75
2023-01-26T02:50:14.696Z,2.17
2023-01-26T02:52:45.370Z,1.55
2023-01-26T02:55:25.304Z,1.75
2023-01-26T02:57:58.351Z,1.70
2023-01-26T03:00:37.201Z,1.88
2023-01-26T03:03:17.219Z,1.63
2023-01-26T03:05:48.107Z,1.63
2023-01-26T03:11:02.027Z,1.80
2023-01-26T03:13:32.681Z,1.55
2023-01-26T03:16:09.802Z,1.35
2023-01-26T03:18:58.261Z,1.30
2023-01-26T03:21:47.037Z,1.67
2023-01-26T03:24:36.396Z,1.52
2023-01-26T03:27:25.094Z,1.08
2023-01-26T03:29:56.262Z,1.25
2023-01-26T03:32:27.577Z,1.38
2023-01-26T03:34:58.188Z,1.30
2023-01-26T03:37:28.578Z,1.55
2023-01-26T03:40:16.860Z,2.03
2023-01-26T03:43:06.039Z,2.13
2023-01-26T03:45:54.539Z,2.05
2023-01-26T03:48:42.893Z,2.00
2023-01-26T03:51:31.011Z,2.03
2023-01-26T03:54:19.748Z,1.30
2023-01-26T03:56:49.971Z,1.50
2023-01-26T03:59:27.066Z,1.50
2023-01-26T04:02:15.096Z,1.27
2023-01-26T04:05:03.629Z,1.30
2023-01-26T04:07:51.728Z,1.40
2023-01-26T04:10:22.106Z,1.75
2023-01-26T04:13:10.094Z,1.23
2023-01-26T04:15:58.842Z,1.40
2023-01-26T04:18:47.715Z,1.70
2023-01-26T04:21:30.850Z,1.80
2023-01-26T04:24:02.197Z,1.50
2023-01-26T04:26:37.248Z,1.45
2023-01-26T04:29:10.606Z,2.03
2023-01-26T04:31:43.472Z,1.70
2023-01-26T04:34:16.746Z,1.50
2023-01-26T04:36:47.400Z,1.38
2023-01-26T04:39:18.140Z,1.42
2023-01-26T04:41:50.101Z,1.63
2023-01-26T04:44:22.815Z,1.55
2023-01-26T04:46:53.679Z,1.45
2023-01-26T04:49:25.865Z,1.48
2023-01-26T04:51:56.570Z,1.95
2023-01-26T04:54:26.869Z,1.83
2023-01-26T04:56:57.193Z,1.40
2023-01-26T04:59:27.491Z,1.38
2023-01-26T05:01:58.531Z,1.92
2023-01-26T05:04:28.789Z,1.80
2023-01-26T05:06:59.704Z,1.65
2023-01-26T05:09:29.937Z,2.20
2023-01-26T05:12:20.123Z,1.80
2023-01-26T05:14:50.455Z,1.88
2023-01-26T05:17:21.593Z,1.52
2023-01-26T05:19:52.258Z,1.77
2023-01-26T05:22:22.628Z,1.77
2023-01-26T05:24:54.300Z,2.20
2023-01-26T05:27:25.125Z,2.47
2023-01-26T05:29:56.905Z,2.15
2023-01-26T05:32:27.364Z,2.65
2023-01-26T05:34:57.906Z,2.67
2023-01-26T05:37:30.387Z,2.47
2023-01-26T05:40:00.726Z,2.30
2023-01-26T05:42:31.222Z,2.70
2023-01-26T05:45:01.866Z,2.20
2023-01-26T05:47:32.348Z,2.58
2023-01-26T05:50:02.998Z,2.00
2023-01-26T05:52:34.475Z,2.50
2023-01-26T05:55:05.518Z,2.00
2023-01-26T05:57:36.209Z,2.50
2023-01-26T06:00:08.633Z,1.73
2023-01-26T06:02:39.626Z,1.80
2023-01-26T06:05:10.730Z,1.80
2023-01-26T06:07:41.395Z,1.60
2023-01-26T06:10:12.509Z,1.52
2023-01-26T06:12:44.914Z,1.38
2023-01-26T06:15:15.350Z,1.52
2023-01-26T06:17:45.810Z,1.40
2023-01-26T06:20:16.560Z,1.70
2023-01-26T06:22:47.057Z,1.38
2023-01-26T06:25:17.449Z,1.60
2023-01-26T06:27:47.964Z,1.80
2023-01-26T06:30:18.931Z,1.30
2023-01-26T06:32:50.812Z,1.38
2023-01-26T06:35:21.505Z,1.63
2023-01-26T06:37:54.623Z,1.65
2023-01-26T06:40:26.519Z,1.90
2023-01-26T06:42:57.436Z,2.25
2023-01-26T06:45:28.357Z,1.60
2023-01-26T06:47:59.174Z,1.77
2023-01-26T06:50:35.585Z,1.73
2023-01-26T06:53:28.386Z,1.92
2023-01-26T06:55:58.618Z,1.73
2023-01-26T06:58:29.532Z,1.80
2023-01-26T07:01:00.747Z,1.60
2023-01-26T07:03:31.145Z,2.00
2023-01-26T07:06:01.475Z,1.75
2023-01-26T07:08:32.023Z,1.83
2023-01-26T07:11:02.754Z,1.55
2023-01-26T07:13:33.508Z,1.45
2023-01-26T07:16:12.823Z,2.03
2023-01-26T07:18:43.554Z,1.95
2023-01-26T07:21:16.310Z,1.90
2023-01-26T07:23:47.252Z,2.03
2023-01-26T07:26:17.934Z,1.30
2023-01-26T07:28:49.303Z,1.60
2023-01-26T07:31:21.346Z,1.30
2023-01-26T07:33:52.341Z,1.50
2023-01-26T07:36:24.264Z,1.35
2023-01-26T07:38:57.099Z,1.60
2023-01-26T07:41:29.045Z,2.25
2023-01-26T07:44:00.919Z,2.40
2023-01-26T07:46:31.732Z,2.40
2023-01-26T07:49:02.877Z,2.17
2023-01-26T07:51:34.707Z,2.40
2023-01-26T07:54:06.353Z,2.88
2023-01-26T07:56:38.602Z,3.90
2023-01-26T07:59:10.631Z,2.30
2023-01-26T08:01:41.960Z,2.80
2023-01-26T08:04:14.824Z,2.80
2023-01-26T08:06:46.242Z,3.15
2023-01-26T08:09:18.636Z,2.92
2023-01-26T08:11:52.392Z,3.80
2023-01-26T08:14:23.312Z,2.72
2023-01-26T08:16:55.983Z,3.00
2023-01-26T08:19:27.927Z,2.70
2023-01-26T08:22:00.911Z,3.40
2023-01-26T08:24:31.454Z,3.60
2023-01-26T08:27:02.211Z,2.78
2023-01-26T08:29:32.499Z,2.78
2023-01-26T08:32:03.497Z,3.58
2023-01-26T08:34:34.233Z,3.05
2023-01-26T08:37:05.364Z,2.72
2023-01-26T08:39:35.670Z,2.60
2023-01-26T08:42:05.959Z,2.92
2023-01-26T08:44:36.197Z,2.95
2023-01-26T08:47:06.898Z,3.40
2023-01-26T08:49:37.604Z,2.92
2023-01-26T08:52:08.040Z,2.70
2023-01-26T08:54:38.332Z,2.30
2023-01-26T08:57:08.570Z,2.40
2023-01-26T08:59:38.870Z,2.35
2023-01-26T09:02:11.464Z,2.83
2023-01-26T09:04:41.811Z,2.72
2023-01-26T09:07:13.470Z,2.17
2023-01-26T09:09:43.892Z,2.60
2023-01-26T09:12:14.192Z,1.85
2023-01-26T09:14:44.901Z,2.83
2023-01-26T09:17:15.544Z,2.50
2023-01-26T09:19:45.831Z,2.47
2023-01-26T09:22:16.157Z,2.60
2023-01-26T09:24:46.509Z,2.20
2023-01-26T09:27:16.823Z,2.78
2023-01-26T09:29:47.545Z,2.40
2023-01-26T09:32:18.547Z,2.30
2023-01-26T09:34:49.187Z,1.98
2023-01-26T09:37:20.748Z,1.98
2023-01-26T09:39:51.006Z,2.20
2023-01-26T09:42:52.982Z,2.47
2023-01-26T09:45:31.747Z,2.75
2023-01-26T09:48:35.526Z,2.25
2023-01-26T09:51:33.665Z,1.75
2023-01-26T09:54:18.674Z,2.15
2023-01-26T09:56:49.583Z,1.95
2023-01-26T09:59:54.565Z,2.20
2023-01-26T10:02:44.637Z,2.00
2023-01-26T10:05:27.290Z,1.80
2023-01-26T10:07:57.638Z,2.35
2023-01-26T10:10:36.246Z,1.88
2023-01-26T10:13:07.874Z,2.13
2023-01-26T10:15:46.484Z,2.60
2023-01-26T10:18:24.754Z,2.53
2023-01-26T10:20:58.637Z,2.33
2023-01-26T10:23:38.306Z,2.22
2023-01-26T10:26:21.343Z,2.22
2023-01-26T10:28:54.921Z,1.92
2023-01-26T10:31:30.977Z,2.20
2023-01-26T10:34:12.414Z,2.60
2023-01-26T10:36:44.417Z,2.00
2023-01-26T10:39:21.403Z,2.78
2023-01-26T10:42:05.265Z,1.90
2023-01-26T10:44:38.332Z,2.33
2023-01-26T10:47:09.983Z,2.60
2023-01-26T10:49:40.248Z,2.72
2023-01-26T10:52:34.650Z,2.17
2023-01-26T10:55:22.040Z,2.28
2023-01-26T10:57:52.443Z,1.95
2023-01-26T11:00:30.708Z,2.53
2023-01-26T11:03:33.318Z,1.92
2023-01-26T11:06:15.613Z,2.28
2023-01-26T11:08:48.354Z,2.78
2023-01-26T11:11:32.162Z,2.15
2023-01-26T11:14:21.097Z,2.08
2023-01-26T11:17:03.904Z,2.45
2023-01-26T11:19:40.676Z,1.80
2023-01-26T11:22:33.076Z,1.50
2023-01-26T11:25:30.723Z,1.30
2023-01-26T11:28:07.480Z,1.48
2023-01-26T11:31:07.598Z,1.38
2023-01-26T11:33:57.428Z,1.65
2023-01-26T11:36:49.791Z,1.58
2023-01-26T11:39:48.956Z,1.63
2023-01-26T11:42:28.611Z,1.50
2023-01-26T11:45:11.565Z,1.10
2023-01-26T11:48:22.989Z,1.73
2023-01-26T11:50:58.967Z,1.00
2023-01-26T11:53:46.243Z,1.50
2023-01-26T11:56:29.901Z,1.23
2023-01-26T11:59:18.672Z,1.45
2023-01-26T12:01:49.361Z,0.90
2023-01-26T12:04:26.287Z,1.45
2023-01-26T12:07:04.541Z,1.15
2023-01-26T12:09:54.418Z,1.02
2023-01-26T12:12:45.184Z,1.55
2023-01-26T12:15:29.310Z,0.80
2023-01-26T12:18:27.936Z,1.08
2023-01-26T12:21:13.121Z,0.82
2023-01-26T12:23:51.131Z,1.13
2023-01-26T12:26:27.718Z,0.73
2023-01-26T12:29:15.932Z,0.80
2023-01-26T12:32:07.296Z,0.90
2023-01-26T12:34:38.104Z,0.82
2023-01-26T12:37:49.450Z,1.00
2023-01-26T12:40:46.230Z,0.80
2023-01-26T12:43:42.134Z,1.25
2023-01-26T12:46:14.261Z,0.80
2023-01-26T12:49:16.948Z,1.35
2023-01-26T12:52:17.560Z,1.00
2023-01-26T12:55:00.880Z,1.15
2023-01-26T12:57:41.080Z,0.93
2023-01-26T13:00:23.793Z,1.13
2023-01-26T13:02:59.536Z,1.17
2023-01-26T13:05:36.684Z,1.00
2023-01-26T13:08:34.391Z,1.05
2023-01-26T13:11:29.752Z,2.05
2023-01-26T13:14:02.299Z,1.42
2023-01-26T13:16:34.564Z,1.33
2023-01-26T13:19:06.045Z,1.58
2023-01-26T13:21:44.153Z,1.17
2023-01-26T13:24:21.027Z,1.30
2023-01-26T13:26:55.008Z,1.58
2023-01-26T13:29:32.060Z,1.42
2023-01-26T13:32:24.412Z,1.50
2023-01-26T13:34:59.995Z,1.42
2023-01-26T13:37:36.490Z,1.52
2023-01-26T13:40:21.573Z,1.73
2023-01-26T13:43:00.668Z,1.38
2023-01-26T13:45:52.889Z,1.65
2023-01-26T13:48:54.554Z,1.80
2023-01-26T13:51:38.786Z,1.50
2023-01-26T13:54:19.643Z,1.42
2023-01-26T13:57:08.478Z,1.70
2023-01-26T13:59:52.875Z,1.10
2023-01-26T14:02:36.307Z,1.45
2023-01-26T14:05:06.783Z,1.70
2023-01-26T14:07:46.690Z,1.40
2023-01-26T14:10:22.623Z,1.25
2023-01-26T14:12:58.862Z,1.80
2023-01-26T14:15:32.130Z,1.92
2023-01-26T14:18:08.639Z,1.17
2023-01-26T14:20:44.440Z,1.48
2023-01-26T14:23:18.143Z,1.77
2023-01-26T14:26:02.692Z,1.42
2023-01-26T14:28:44.984Z,1.40
2023-01-26T14:31:31.090Z,1.70
2023-01-26T14:34:02.704Z,1.40
2023-01-26T14:36:43.136Z,1.48
2023-01-26T14:39:24.596Z,1.50
2023-01-26T14:41:55.524Z,1.73
2023-01-26T14:44:26.572Z,1.80
2023-01-26T14:47:34.639Z,1.42
2023-01-26T14:50:31.341Z,1.15
2023-01-26T14:53:05.810Z,1.30
2023-01-26T14:55:39.562Z,1.58
2023-01-26T14:58:27.954Z,1.20
2023-01-26T15:01:03.695Z,1.08
2023-01-26T15:03:41.003Z,1.30
2023-01-26T15:06:21.606Z,2.08
2023-01-26T15:09:00.348Z,0.95
2023-01-26T15:11:57.812Z,0.90
2023-01-26T15:14:49.905Z,1.25
2023-01-26T15:17:33.095Z,1.10
2023-01-26T15:20:03.693Z,1.30
2023-01-26T15:22:35.434Z,1.15
2023-01-26T15:25:11.831Z,0.90
2023-01-26T15:30:19.588Z,0.80
2023-01-26T15:32:50.559Z,0.90
2023-01-26T15:35:30.003Z,0.63
2023-01-26T15:38:08.863Z,1.20
2023-01-26T15:40:39.683Z,0.80
2023-01-26T15:43:13.500Z,1.10
2023-01-26T15:45:50.961Z,1.20
2023-01-26T15:48:21.508Z,1.13
2023-01-26T15:50:53.585Z,1.30
2023-01-26T15:53:25.563Z,1.40
2023-01-26T15:55:58.100Z,1.35
2023-01-26T15:58:30.591Z,1.40
2023-01-26T16:01:01.323Z,1.35
2023-01-26T16:03:32.589Z,1.42
2023-01-26T16:06:02.811Z,1.30
2023-01-26T16:08:33.341Z,1.40
2023-01-26T16:11:03.995Z,1.38
2023-01-26T16:13:34.296Z,1.23
2023-01-26T16:16:05.807Z,1.20
2023-01-26T16:18:37.933Z,2.08
2023-01-26T16:21:32.139Z,1.20
2023-01-26T16:24:04.568Z,1.00
2023-01-26T16:26:35.358Z,1.17
2023-01-26T16:29:05.819Z,1.10
2023-01-26T16:31:39.807Z,1.00
2023-01-26T16:34:12.362Z,1.30
2023-01-26T16:36:42.855Z,1.00
2023-01-26T16:39:13.366Z,1.00
2023-01-26T16:41:43.647Z,0.88
2023-01-26T16:44:22.582Z,0.93
2023-01-26T16:46:52.828Z,0.90
2023-01-26T16:49:23.920Z,0.90
2023-01-26T16:51:54.198Z,1.10
2023-01-26T16:54:24.749Z,1.35
2023-01-26T16:56:55.153Z,1.30
2023-01-26T16:59:25.612Z,1.10
2023-01-26T17:01:56.706Z,1.10
2023-01-26T17:04:27.716Z,1.25
2023-01-26T17:06:58.203Z,0.85
2023-01-26T17:09:29.913Z,0.90
2023-01-26T17:12:00.342Z,0.90
2023-01-26T17:14:30.971Z,1.33
2023-01-26T17:17:02.519Z,0.93
2023-01-26T17:19:32.986Z,0.90
2023-01-26T17:22:03.243Z,1.25
2023-01-26T17:24:33.590Z,0.95
2023-01-26T17:27:03.916Z,0.90
2023-01-26T17:29:35.449Z,0.88
2023-01-26T17:32:06.057Z,1.00
2023-01-26T17:34:37.100Z,0.90
2023-01-26T17:37:07.850Z,0.73
2023-01-26T17:39:38.359Z,0.80
2023-01-26T17:42:08.639Z,0.90
2023-01-26T17:44:39.487Z,0.90
2023-01-26T17:47:11.089Z,1.15
2023-01-26T17:49:41.466Z,0.60
2023-01-26T17:52:14.061Z,0.90
2023-01-26T17:54:45.066Z,0.90
2023-01-26T17:57:16.816Z,0.75
2023-01-26T17:59:47.275Z,0.60
2023-01-26T18:02:18.939Z,0.85
2023-01-26T18:04:50.654Z,0.88
2023-01-26T18:07:20.916Z,0.65
2023-01-26T18:09:51.356Z,0.90
2023-01-26T18:12:21.707Z,0.75
2023-01-26T18:14:54.250Z,0.80
2023-01-26T18:17:25.350Z,0.70
2023-01-26T18:19:56.065Z,1.45
2023-01-26T18:22:26.404Z,1.38
2023-01-26T18:24:57.573Z,0.68
2023-01-26T18:27:27.889Z,0.65
2023-01-26T18:29:58.682Z,1.10
2023-01-26T18:32:29.657Z,0.50
2023-01-26T18:35:00.109Z,0.52
2023-01-26T18:37:33.016Z,0.73
2023-01-26T18:40:06.347Z,0.80
2023-01-26T18:42:37.194Z,0.70
2023-01-26T18:45:08.246Z,0.45
2023-01-26T18:47:38.642Z,0.70
2023-01-26T18:50:11.010Z,1.05
2023-01-26T18:52:41.331Z,0.70
2023-01-26T18:55:13.468Z,0.75
2023-01-26T18:57:44.378Z,0.60
2023-01-26T19:00:16.636Z,0.50
2023-01-26T19:02:47.005Z,0.80
2023-01-26T19:05:17.713Z,0.52
2023-01-26T19:07:47.949Z,0.57
2023-01-26T19:10:18.946Z,0.45
2023-01-26T19:12:52.316Z,0.52
2023-01-26T19:15:22.694Z,0.50
2023-01-26T19:17:52.950Z,0.40
2023-01-26T19:20:24.123Z,0.50
2023-01-26T19:22:59.081Z,0.93
2023-01-26T19:25:32.708Z,0.40
2023-01-26T19:28:02.970Z,0.40
2023-01-26T19:30:35.199Z,0.45
2023-01-26T19:33:31.690Z,0.32
2023-01-26T19:36:04.056Z,0.30
2023-01-26T19:38:35.549Z,0.30
2023-01-26T19:41:06.032Z,0.30
2023-01-26T19:43:36.958Z,0.45
2023-01-26T19:46:09.990Z,0.20
2023-01-26T19:48:40.851Z,0.38
2023-01-26T19:51:20.752Z,0.28
2023-01-26T19:53:53.407Z,0.32
2023-01-26T19:56:31.400Z,0.08
2023-01-26T19:59:05.113Z,0.10
2023-01-26T20:01:36.325Z,0.10
2023-01-26T20:04:10.894Z,0.10
2023-01-26T20:06:41.604Z,0.10
2023-01-26T20:09:12.206Z,0.20
2023-01-26T20:11:42.897Z,0.10
2023-01-26T20:14:14.241Z,0.10
2023-01-26T20:16:44.695Z,0.13
2023-01-26T20:19:16.264Z,0.20
2023-01-26T20:21:47.362Z,0.10
2023-01-26T20:24:19.574Z,0.10
2023-01-26T20:26:51.006Z,0.30
2023-01-26T20:29:22.653Z,0.20
2023-01-26T20:31:53.429Z,0.13
2023-01-26T20:34:24.088Z,0.20
2023-01-26T20:37:00.102Z,0.20
2023-01-26T20:39:30.403Z,0.10
2023-01-26T20:42:01.232Z,0.10
2023-01-26T20:44:31.570Z,0.20
2023-01-26T20:47:01.933Z,0.17
2023-01-26T20:49:32.357Z,0.40
2023-01-26T20:52:04.608Z,0.40
2023-01-26T20:54:34.840Z,0.10
2023-01-26T20:57:05.563Z,0.20
2023-01-26T20:59:37.382Z,0.20
2023-01-26T21:02:09.211Z,0.17
2023-01-26T21:04:39.717Z,0.20
2023-01-26T21:07:11.366Z,0.10
2023-01-26T21:09:43.643Z,0.30
2023-01-26T21:12:17.705Z,0.75
2023-01-26T21:14:48.486Z,0.52
2023-01-26T21:17:19.212Z,0.40
2023-01-26T21:19:49.566Z,0.30
2023-01-26T21:22:20.301Z,0.15
2023-01-26T21:24:50.580Z,0.20
2023-01-26T21:27:20.877Z,0.20
2023-01-26T21:29:51.594Z,0.40
2023-01-26T21:32:22.054Z,0.20
2023-01-26T21:35:05.471Z,0.30
2023-01-26T21:37:36.144Z,0.20
2023-01-26T21:40:07.510Z,0.20
2023-01-26T21:42:38.089Z,0.15
2023-01-26T21:45:27.396Z,0.25
2023-01-26T21:48:21.272Z,0.63
2023-01-26T21:51:15.068Z,0.20
2023-01-26T21:53:46.193Z,0.10
2023-01-26T21:56:18.580Z,0.30
2023-01-26T21:59:20.774Z,0.20
2023-01-26T22:01:56.897Z,0.20
2023-01-26T22:04:32.698Z,0.20
2023-01-26T22:07:03.082Z,0.32
2023-01-26T22:09:33.357Z,0.20
2023-01-26T22:12:03.730Z,0.20
2023-01-26T22:14:34.024Z,0.20
2023-01-26T22:17:08.772Z,0.13
2023-01-26T22:19:39.332Z,0.30
2023-01-26T22:22:09.863Z,0.30
2023-01-26T22:24:40.094Z,0.40
2023-01-26T22:27:10.447Z,0.20
2023-01-26T22:29:40.676Z,0.20
2023-01-26T22:32:11.654Z,0.22
2023-01-26T22:34:42.116Z,0.25
2023-01-26T22:37:12.388Z,0.30
2023-01-26T22:39:43.111Z,0.10
2023-01-26T22:42:13.799Z,0.20
2023-01-26T22:44:45.492Z,0.22
2023-01-26T22:47:15.744Z,0.28
2023-01-26T22:49:47.091Z,0.13
2023-01-26T22:52:17.905Z,0.30
2023-01-26T22:54:48.437Z,0.30
2023-01-26T22:57:18.979Z,0.40
2023-01-26T22:59:49.428Z,0.30
2023-01-26T23:02:20.330Z,0.22
2023-01-26T23:04:51.111Z,0.40
2023-01-26T23:07:21.715Z,0.40
2023-01-26T23:10:03.305Z,0.45
2023-01-26T23:12:34.454Z,0.30
2023-01-26T23:15:04.833Z,0.40
2023-01-26T23:17:35.249Z,0.40
2023-01-26T23:20:05.681Z,0.65
2023-01-26T23:22:36.084Z,0.30
2023-01-26T23:25:25.058Z,0.35
2023-01-26T23:27:55.429Z,0.22
2023-01-26T23:30:25.981Z,0.30
2023-01-26T23:32:56.888Z,0.60
2023-01-26T23:35:27.780Z,0.70
2023-01-26T23:38:00.775Z,1.17
2023-01-26T23:40:31.221Z,0.50
2023-01-26T23:43:15.748Z,1.10
2023-01-26T23:45:48.751Z,0.40
2023-01-26T23:48:19.351Z,0.57
2023-01-26T23:50:50.033Z,0.40
2023-01-26T23:53:20.443Z,0.60
2023-01-26T23:55:51.323Z,0.50
2023-01-26T23:58:25.861Z,0.45
